sensor_id;sensor_type;location;lat;lon;timestamp;P1;durP1;ratioP1;P2;durP2;ratioP2
38865;SDS011;62686;48.984;8.394;2023-11-19T02:11:03;2.72;;;1.27;;
38865;SDS011;62686;48.984;8.394;2023-11-19T02:13:33;1.20;;;0.93;;
38865;SDS011;62686;48.984;8.394;2023-11-19T02:16:03;1.17;;;1.08;;
38865;SDS011;62686;48.984;8.394;2023-11-19T02:18:33;2.15;;;1.10;;
38865;SDS011;62686;48.984;8.394;2023-11-19T02:26:23;1.42;;;1.13;;
38865;SDS011;62686;48.984;8.394;2023-11-19T02:28:58;1.90;;;1.00;;
38865;SDS011;62686;48.984;8.394;2023-11-19T02:31:33;1.75;;;1.40;;
38865;SDS011;62686;48.984;8.394;2023-11-19T02:34:10;2.50;;;1.60;;
38865;SDS011;62686;48.984;8.394;2023-11-19T03:33:34;2.70;;;1.77;;
38865;SDS011;62686;48.984;8.394;2023-11-19T03:36:05;1.85;;;1.70;;
38865;SDS011;62686;48.984;8.394;2023-11-19T03:38:45;4.20;;;1.55;;
38865;SDS011;62686;48.984;8.394;2023-11-19T03:41:32;3.17;;;1.70;;
38865;SDS011;62686;48.984;8.394;2023-11-19T04:38:50;1.60;;;1.48;;
38865;SDS011;62686;48.984;8.394;2023-11-19T04:41:19;2.33;;;1.38;;
38865;SDS011;62686;48.984;8.394;2023-11-19T04:43:47;2.03;;;1.60;;
38865;SDS011;62686;48.984;8.394;2023-11-19T04:46:16;2.38;;;1.77;;
38865;SDS011;62686;48.984;8.394;2023-11-19T04:48:45;1.93;;;1.80;;
38865;SDS011;62686;48.984;8.394;2023-11-19T04:53:57;2.88;;;1.58;;
38865;SDS011;62686;48.984;8.394;2023-11-19T05:10:22;2.57;;;1.33;;
38865;SDS011;62686;48.984;8.394;2023-11-19T05:13:13;2.83;;;1.20;;
38865;SDS011;62686;48.984;8.394;2023-11-19T05:15:59;2.40;;;1.52;;
38865;SDS011;62686;48.984;8.394;2023-11-19T05:19:00;4.25;;;2.22;;
38865;SDS011;62686;48.984;8.394;2023-11-19T05:21:33;2.17;;;1.42;;
38865;SDS011;62686;48.984;8.394;2023-11-19T05:24:11;2.33;;;1.57;;
38865;SDS011;62686;48.984;8.394;2023-11-19T05:26:47;2.65;;;1.67;;
38865;SDS011;62686;48.984;8.394;2023-11-19T05:29:19;2.00;;;1.40;;
38865;SDS011;62686;48.984;8.394;2023-11-19T05:31:52;1.52;;;1.42;;
38865;SDS011;62686;48.984;8.394;2023-11-19T05:34:23;4.22;;;1.70;;
38865;SDS011;62686;48.984;8.394;2023-11-19T05:36:58;2.60;;;1.43;;
38865;SDS011;62686;48.984;8.394;2023-11-19T05:39:36;1.35;;;1.20;;
38865;SDS011;62686;48.984;8.394;2023-11-19T05:42:15;1.58;;;1.27;;
38865;SDS011;62686;48.984;8.394;2023-11-19T05:44:47;3.08;;;1.40;;
38865;SDS011;62686;48.984;8.394;2023-11-19T05:47:22;2.05;;;1.23;;
38865;SDS011;62686;48.984;8.394;2023-11-19T05:49:54;0.93;;;0.87;;
38865;SDS011;62686;48.984;8.394;2023-11-19T05:52:25;1.17;;;1.02;;
38865;SDS011;62686;48.984;8.394;2023-11-19T05:55:09;1.58;;;1.20;;
38865;SDS011;62686;48.984;8.394;2023-11-19T05:57:44;1.17;;;0.90;;
38865;SDS011;62686;48.984;8.394;2023-11-19T06:00:21;1.08;;;1.05;;
38865;SDS011;62686;48.984;8.394;2023-11-19T06:03:00;1.30;;;1.20;;
38865;SDS011;62686;48.984;8.394;2023-11-19T06:05:36;0.82;;;0.73;;
38865;SDS011;62686;48.984;8.394;2023-11-19T06:08:28;1.25;;;0.88;;
38865;SDS011;62686;48.984;8.394;2023-11-19T06:11:06;0.88;;;0.82;;
38865;SDS011;62686;48.984;8.394;2023-11-19T06:13:48;1.38;;;1.27;;
38865;SDS011;62686;48.984;8.394;2023-11-19T06:16:36;0.90;;;0.90;;
38865;SDS011;62686;48.984;8.394;2023-11-19T06:19:12;0.98;;;0.98;;
38865;SDS011;62686;48.984;8.394;2023-11-19T06:21:56;1.33;;;1.10;;
38865;SDS011;62686;48.984;8.394;2023-11-19T06:24:49;0.52;;;0.52;;
38865;SDS011;62686;48.984;8.394;2023-11-19T06:27:49;1.50;;;1.17;;
38865;SDS011;62686;48.984;8.394;2023-11-19T06:30:42;2.50;;;1.20;;
38865;SDS011;62686;48.984;8.394;2023-11-19T06:33:14;1.17;;;1.08;;
38865;SDS011;62686;48.984;8.394;2023-11-19T06:35:51;1.27;;;1.20;;
38865;SDS011;62686;48.984;8.394;2023-11-19T06:38:23;1.85;;;1.13;;
38865;SDS011;62686;48.984;8.394;2023-11-19T06:41:17;1.60;;;1.50;;
38865;SDS011;62686;48.984;8.394;2023-11-19T06:44:03;2.10;;;1.00;;
38865;SDS011;62686;48.984;8.394;2023-11-19T06:46:37;1.33;;;1.00;;
38865;SDS011;62686;48.984;8.394;2023-11-19T06:49:12;1.02;;;1.00;;
38865;SDS011;62686;48.984;8.394;2023-11-19T06:51:47;0.85;;;0.85;;
38865;SDS011;62686;48.984;8.394;2023-11-19T06:54:20;1.55;;;1.10;;
38865;SDS011;62686;48.984;8.394;2023-11-19T06:56:54;0.83;;;0.83;;
38865;SDS011;62686;48.984;8.394;2023-11-19T06:59:50;1.20;;;0.88;;
38865;SDS011;62686;48.984;8.394;2023-11-19T07:02:41;1.20;;;1.05;;
38865;SDS011;62686;48.984;8.394;2023-11-19T07:05:40;1.20;;;1.10;;
38865;SDS011;62686;48.984;8.394;2023-11-19T07:08:14;1.00;;;1.00;;
38865;SDS011;62686;48.984;8.394;2023-11-19T07:11:04;0.93;;;0.87;;
38865;SDS011;62686;48.984;8.394;2023-11-19T07:16:35;0.68;;;0.65;;
38865;SDS011;62686;48.984;8.394;2023-11-19T07:19:21;0.90;;;0.90;;
38865;SDS011;62686;48.984;8.394;2023-11-19T07:21:55;1.33;;;0.90;;
38865;SDS011;62686;48.984;8.394;2023-11-19T07:24:34;1.80;;;1.17;;
38865;SDS011;62686;48.984;8.394;2023-11-19T07:27:31;1.02;;;1.02;;
38865;SDS011;62686;48.984;8.394;2023-11-19T07:30:03;1.05;;;1.02;;
38865;SDS011;62686;48.984;8.394;2023-11-19T07:32:36;2.10;;;1.00;;
38865;SDS011;62686;48.984;8.394;2023-11-19T07:35:24;1.70;;;1.10;;
38865;SDS011;62686;48.984;8.394;2023-11-19T07:37:54;2.03;;;0.70;;
38865;SDS011;62686;48.984;8.394;2023-11-19T07:40:31;1.02;;;0.70;;
38865;SDS011;62686;48.984;8.394;2023-11-19T07:43:22;1.42;;;1.00;;
38865;SDS011;62686;48.984;8.394;2023-11-19T07:45:59;1.00;;;0.90;;
38865;SDS011;62686;48.984;8.394;2023-11-19T07:48:42;1.00;;;0.60;;
38865;SDS011;62686;48.984;8.394;2023-11-19T07:51:16;0.93;;;0.93;;
38865;SDS011;62686;48.984;8.394;2023-11-19T07:54:00;0.98;;;0.73;;
38865;SDS011;62686;48.984;8.394;2023-11-19T07:56:42;1.00;;;1.00;;
38865;SDS011;62686;48.984;8.394;2023-11-19T07:59:37;0.80;;;0.80;;
38865;SDS011;62686;48.984;8.394;2023-11-19T08:02:11;1.00;;;0.90;;
38865;SDS011;62686;48.984;8.394;2023-11-19T08:04:52;1.17;;;1.07;;
38865;SDS011;62686;48.984;8.394;2023-11-19T08:07:44;1.30;;;1.08;;
38865;SDS011;62686;48.984;8.394;2023-11-19T08:10:39;1.10;;;1.10;;
38865;SDS011;62686;48.984;8.394;2023-11-19T08:13:10;1.25;;;0.63;;
38865;SDS011;62686;48.984;8.394;2023-11-19T08:15:58;1.10;;;1.10;;
38865;SDS011;62686;48.984;8.394;2023-11-19T08:18:33;1.27;;;1.17;;
38865;SDS011;62686;48.984;8.394;2023-11-19T08:21:07;0.80;;;0.80;;
38865;SDS011;62686;48.984;8.394;2023-11-19T08:23:43;0.98;;;0.93;;
38865;SDS011;62686;48.984;8.394;2023-11-19T08:26:35;1.17;;;0.90;;
38865;SDS011;62686;48.984;8.394;2023-11-19T08:29:14;3.08;;;1.45;;
38865;SDS011;62686;48.984;8.394;2023-11-19T08:32:04;0.67;;;0.67;;
38865;SDS011;62686;48.984;8.394;2023-11-19T08:35:09;1.23;;;1.08;;
38865;SDS011;62686;48.984;8.394;2023-11-19T08:37:49;1.10;;;0.82;;
38865;SDS011;62686;48.984;8.394;2023-11-19T08:40:24;1.75;;;1.30;;
38865;SDS011;62686;48.984;8.394;2023-11-19T08:43:15;2.75;;;1.02;;
38865;SDS011;62686;48.984;8.394;2023-11-19T08:46:02;2.00;;;1.50;;
38865;SDS011;62686;48.984;8.394;2023-11-19T08:48:58;2.60;;;1.42;;
38865;SDS011;62686;48.984;8.394;2023-11-19T08:51:41;3.58;;;1.58;;
38865;SDS011;62686;48.984;8.394;2023-11-19T08:54:28;3.50;;;1.35;;
38865;SDS011;62686;48.984;8.394;2023-11-19T08:57:07;1.33;;;1.20;;
38865;SDS011;62686;48.984;8.394;2023-11-19T08:59:39;4.73;;;2.17;;
38865;SDS011;62686;48.984;8.394;2023-11-19T09:02:14;1.33;;;1.00;;
38865;SDS011;62686;48.984;8.394;2023-11-19T09:05:02;4.90;;;2.72;;
38865;SDS011;62686;48.984;8.394;2023-11-19T09:07:51;4.43;;;2.05;;
38865;SDS011;62686;48.984;8.394;2023-11-19T09:10:32;2.35;;;1.40;;
38865;SDS011;62686;48.984;8.394;2023-11-19T09:13:25;6.23;;;1.83;;
38865;SDS011;62686;48.984;8.394;2023-11-19T09:16:11;2.30;;;1.80;;
38865;SDS011;62686;48.984;8.394;2023-11-19T09:18:49;1.80;;;1.70;;
38865;SDS011;62686;48.984;8.394;2023-11-19T09:21:27;2.65;;;1.60;;
38865;SDS011;62686;48.984;8.394;2023-11-19T09:24:16;1.45;;;1.30;;
38865;SDS011;62686;48.984;8.394;2023-11-19T09:27:17;2.43;;;1.47;;
38865;SDS011;62686;48.984;8.394;2023-11-19T09:30:08;1.73;;;1.20;;
38865;SDS011;62686;48.984;8.394;2023-11-19T09:33:02;3.17;;;1.65;;
38865;SDS011;62686;48.984;8.394;2023-11-19T09:36:08;1.85;;;1.33;;
38865;SDS011;62686;48.984;8.394;2023-11-19T09:39:07;2.72;;;1.45;;
38865;SDS011;62686;48.984;8.394;2023-11-19T09:41:55;1.40;;;1.17;;
38865;SDS011;62686;48.984;8.394;2023-11-19T09:48:23;3.00;;;1.40;;
38865;SDS011;62686;48.984;8.394;2023-11-19T09:51:18;2.30;;;1.55;;
38865;SDS011;62686;48.984;8.394;2023-11-19T09:54:12;1.30;;;1.20;;
38865;SDS011;62686;48.984;8.394;2023-11-19T09:57:08;2.03;;;1.37;;
38865;SDS011;62686;48.984;8.394;2023-11-19T10:00:12;1.60;;;1.27;;
38865;SDS011;62686;48.984;8.394;2023-11-19T10:02:52;2.70;;;1.48;;
38865;SDS011;62686;48.984;8.394;2023-11-19T10:05:58;4.93;;;2.40;;
38865;SDS011;62686;48.984;8.394;2023-11-19T10:08:58;1.70;;;1.30;;
38865;SDS011;62686;48.984;8.394;2023-11-19T10:11:38;3.13;;;1.57;;
38865;SDS011;62686;48.984;8.394;2023-11-19T10:14:51;3.80;;;2.22;;
38865;SDS011;62686;48.984;8.394;2023-11-19T10:18:16;6.35;;;3.38;;
38865;SDS011;62686;48.984;8.394;2023-11-19T10:21:10;4.05;;;1.85;;
38865;SDS011;62686;48.984;8.394;2023-11-19T10:24:03;4.18;;;2.38;;
38865;SDS011;62686;48.984;8.394;2023-11-19T10:27:16;3.20;;;2.50;;
38865;SDS011;62686;48.984;8.394;2023-11-19T10:30:17;3.35;;;1.73;;
38865;SDS011;62686;48.984;8.394;2023-11-19T10:36:15;1.35;;;1.13;;
38865;SDS011;62686;48.984;8.394;2023-11-19T10:38:54;1.60;;;1.50;;
38865;SDS011;62686;48.984;8.394;2023-11-19T10:41:28;2.13;;;1.43;;
38865;SDS011;62686;48.984;8.394;2023-11-19T10:46:54;5.28;;;2.05;;
38865;SDS011;62686;48.984;8.394;2023-11-19T10:49:42;2.78;;;2.20;;
38865;SDS011;62686;48.984;8.394;2023-11-19T10:52:20;2.70;;;1.92;;
38865;SDS011;62686;48.984;8.394;2023-11-19T11:09:56;2.57;;;1.40;;
38865;SDS011;62686;48.984;8.394;2023-11-19T11:12:25;2.85;;;1.40;;
38865;SDS011;62686;48.984;8.394;2023-11-19T11:20:19;2.15;;;1.45;;
38865;SDS011;62686;48.984;8.394;2023-11-19T11:22:49;2.33;;;1.43;;
38865;SDS011;62686;48.984;8.394;2023-11-19T11:25:37;3.47;;;2.25;;
38865;SDS011;62686;48.984;8.394;2023-11-19T11:28:18;7.32;;;1.83;;
38865;SDS011;62686;48.984;8.394;2023-11-19T11:31:07;2.05;;;1.65;;
38865;SDS011;62686;48.984;8.394;2023-11-19T11:33:58;1.83;;;1.60;;
38865;SDS011;62686;48.984;8.394;2023-11-19T11:36:45;2.70;;;1.93;;
38865;SDS011;62686;48.984;8.394;2023-11-19T11:39:24;2.05;;;1.75;;
38865;SDS011;62686;48.984;8.394;2023-11-19T11:45:03;3.22;;;1.75;;
38865;SDS011;62686;48.984;8.394;2023-11-19T11:53:13;3.85;;;2.05;;
38865;SDS011;62686;48.984;8.394;2023-11-19T11:55:54;3.05;;;2.22;;
38865;SDS011;62686;48.984;8.394;2023-11-19T11:58:35;3.05;;;2.00;;
38865;SDS011;62686;48.984;8.394;2023-11-19T12:01:05;2.25;;;2.00;;
38865;SDS011;62686;48.984;8.394;2023-11-19T12:03:33;2.17;;;1.83;;
38865;SDS011;62686;48.984;8.394;2023-11-19T12:06:02;2.10;;;1.48;;
38865;SDS011;62686;48.984;8.394;2023-11-19T12:08:31;2.03;;;1.83;;
38865;SDS011;62686;48.984;8.394;2023-11-19T12:11:07;2.05;;;1.60;;
38865;SDS011;62686;48.984;8.394;2023-11-19T12:13:46;2.20;;;1.80;;
38865;SDS011;62686;48.984;8.394;2023-11-19T12:16:23;3.33;;;2.00;;
38865;SDS011;62686;48.984;8.394;2023-11-19T12:18:54;2.47;;;1.63;;
38865;SDS011;62686;48.984;8.394;2023-11-19T12:24:08;2.35;;;1.33;;
38865;SDS011;62686;48.984;8.394;2023-11-19T12:26:44;1.65;;;1.55;;
38865;SDS011;62686;48.984;8.394;2023-11-19T12:29:18;2.63;;;1.40;;
38865;SDS011;62686;48.984;8.394;2023-11-19T12:31:53;4.05;;;1.50;;
38865;SDS011;62686;48.984;8.394;2023-11-19T12:34:40;1.67;;;1.58;;
38865;SDS011;62686;48.984;8.394;2023-11-19T12:37:10;3.08;;;1.50;;
38865;SDS011;62686;48.984;8.394;2023-11-19T12:39:39;2.13;;;1.80;;
38865;SDS011;62686;48.984;8.394;2023-11-19T12:42:08;1.77;;;1.67;;
38865;SDS011;62686;48.984;8.394;2023-11-19T12:44:39;1.45;;;1.33;;
38865;SDS011;62686;48.984;8.394;2023-11-19T12:47:27;2.63;;;2.00;;
38865;SDS011;62686;48.984;8.394;2023-11-19T12:49:55;2.60;;;1.55;;
38865;SDS011;62686;48.984;8.394;2023-11-19T12:52:24;1.80;;;1.70;;
38865;SDS011;62686;48.984;8.394;2023-11-19T12:54:53;2.67;;;1.90;;
38865;SDS011;62686;48.984;8.394;2023-11-19T12:57:35;1.80;;;1.50;;
38865;SDS011;62686;48.984;8.394;2023-11-19T13:00:17;2.42;;;1.90;;
38865;SDS011;62686;48.984;8.394;2023-11-19T13:02:48;2.05;;;1.80;;
38865;SDS011;62686;48.984;8.394;2023-11-19T13:05:22;1.70;;;1.60;;
38865;SDS011;62686;48.984;8.394;2023-11-19T13:08:00;1.63;;;1.37;;
38865;SDS011;62686;48.984;8.394;2023-11-19T13:10:31;1.70;;;1.52;;
38865;SDS011;62686;48.984;8.394;2023-11-19T13:13:04;4.00;;;1.92;;
38865;SDS011;62686;48.984;8.394;2023-11-19T13:15:37;3.85;;;1.80;;
38865;SDS011;62686;48.984;8.394;2023-11-19T13:18:06;3.20;;;1.50;;
38865;SDS011;62686;48.984;8.394;2023-11-19T13:20:35;2.37;;;1.70;;
38865;SDS011;62686;48.984;8.394;2023-11-19T13:23:04;1.40;;;1.30;;
38865;SDS011;62686;48.984;8.394;2023-11-19T13:25:34;4.78;;;1.40;;
38865;SDS011;62686;48.984;8.394;2023-11-19T13:28:02;1.95;;;1.30;;
38865;SDS011;62686;48.984;8.394;2023-11-19T13:30:32;2.03;;;1.63;;
38865;SDS011;62686;48.984;8.394;2023-11-19T13:33:02;1.93;;;1.33;;
38865;SDS011;62686;48.984;8.394;2023-11-19T13:35:30;2.03;;;1.70;;
38865;SDS011;62686;48.984;8.394;2023-11-19T13:38:00;2.35;;;1.65;;
38865;SDS011;62686;48.984;8.394;2023-11-19T13:40:29;4.10;;;1.60;;
38865;SDS011;62686;48.984;8.394;2023-11-19T13:42:57;2.10;;;1.33;;
38865;SDS011;62686;48.984;8.394;2023-11-19T13:45:26;2.23;;;1.40;;
38865;SDS011;62686;48.984;8.394;2023-11-19T13:47:54;1.95;;;1.35;;
38865;SDS011;62686;48.984;8.394;2023-11-19T13:50:26;2.30;;;1.70;;
38865;SDS011;62686;48.984;8.394;2023-11-19T13:53:01;1.65;;;1.40;;
38865;SDS011;62686;48.984;8.394;2023-11-19T13:58:13;2.30;;;1.63;;
38865;SDS011;62686;48.984;8.394;2023-11-19T14:00:43;1.33;;;1.20;;
38865;SDS011;62686;48.984;8.394;2023-11-19T14:03:11;5.47;;;1.55;;
38865;SDS011;62686;48.984;8.394;2023-11-19T14:05:41;3.38;;;1.58;;
38865;SDS011;62686;48.984;8.394;2023-11-19T14:08:10;2.78;;;1.27;;
38865;SDS011;62686;48.984;8.394;2023-11-19T14:10:41;2.53;;;1.47;;
38865;SDS011;62686;48.984;8.394;2023-11-19T14:13:11;2.35;;;1.67;;
38865;SDS011;62686;48.984;8.394;2023-11-19T14:15:41;4.38;;;1.70;;
38865;SDS011;62686;48.984;8.394;2023-11-19T14:18:10;8.85;;;1.55;;
38865;SDS011;62686;48.984;8.394;2023-11-19T14:20:39;2.00;;;1.48;;
38865;SDS011;62686;48.984;8.394;2023-11-19T14:23:12;2.80;;;1.40;;
38865;SDS011;62686;48.984;8.394;2023-11-19T14:25:41;2.95;;;1.50;;
38865;SDS011;62686;48.984;8.394;2023-11-19T14:28:14;2.97;;;1.48;;
38865;SDS011;62686;48.984;8.394;2023-11-19T14:30:43;3.03;;;1.30;;
38865;SDS011;62686;48.984;8.394;2023-11-19T14:35:48;2.00;;;1.60;;
38865;SDS011;62686;48.984;8.394;2023-11-19T14:40:55;3.15;;;1.60;;
38865;SDS011;62686;48.984;8.394;2023-11-19T14:43:25;4.63;;;1.70;;
38865;SDS011;62686;48.984;8.394;2023-11-19T14:45:54;2.35;;;1.90;;
38865;SDS011;62686;48.984;8.394;2023-11-19T14:48:23;2.10;;;1.60;;
38865;SDS011;62686;48.984;8.394;2023-11-19T14:50:51;2.72;;;1.67;;
38865;SDS011;62686;48.984;8.394;2023-11-19T14:53:20;3.67;;;2.03;;
38865;SDS011;62686;48.984;8.394;2023-11-19T14:55:49;1.70;;;1.60;;
38865;SDS011;62686;48.984;8.394;2023-11-19T14:58:18;3.17;;;1.52;;
38865;SDS011;62686;48.984;8.394;2023-11-19T15:00:49;2.27;;;1.67;;
38865;SDS011;62686;48.984;8.394;2023-11-19T15:03:17;1.58;;;1.48;;
38865;SDS011;62686;48.984;8.394;2023-11-19T15:05:49;3.15;;;1.80;;
38865;SDS011;62686;48.984;8.394;2023-11-19T15:08:17;2.20;;;1.20;;
38865;SDS011;62686;48.984;8.394;2023-11-19T15:10:46;1.88;;;1.38;;
38865;SDS011;62686;48.984;8.394;2023-11-19T15:13:15;2.90;;;1.17;;
38865;SDS011;62686;48.984;8.394;2023-11-19T15:15:45;1.38;;;1.27;;
38865;SDS011;62686;48.984;8.394;2023-11-19T15:18:13;1.73;;;1.60;;
38865;SDS011;62686;48.984;8.394;2023-11-19T15:20:43;1.85;;;1.10;;
38865;SDS011;62686;48.984;8.394;2023-11-19T15:23:13;2.47;;;1.75;;
38865;SDS011;62686;48.984;8.394;2023-11-19T15:25:42;2.93;;;1.30;;
38865;SDS011;62686;48.984;8.394;2023-11-19T15:28:10;2.45;;;1.30;;
38865;SDS011;62686;48.984;8.394;2023-11-19T15:30:39;2.05;;;1.85;;
38865;SDS011;62686;48.984;8.394;2023-11-19T15:33:09;2.65;;;1.45;;
38865;SDS011;62686;48.984;8.394;2023-11-19T15:35:37;1.85;;;1.30;;
38865;SDS011;62686;48.984;8.394;2023-11-19T15:38:07;3.07;;;1.37;;
38865;SDS011;62686;48.984;8.394;2023-11-19T15:40:36;3.13;;;1.95;;
38865;SDS011;62686;48.984;8.394;2023-11-19T15:43:05;5.43;;;2.72;;
38865;SDS011;62686;48.984;8.394;2023-11-19T15:45:34;5.07;;;3.03;;
38865;SDS011;62686;48.984;8.394;2023-11-19T15:48:04;5.82;;;3.00;;
38865;SDS011;62686;48.984;8.394;2023-11-19T15:50:34;4.87;;;2.30;;
38865;SDS011;62686;48.984;8.394;2023-11-19T15:53:03;7.82;;;3.00;;
38865;SDS011;62686;48.984;8.394;2023-11-19T15:55:37;6.30;;;2.97;;
38865;SDS011;62686;48.984;8.394;2023-11-19T15:58:05;7.40;;;3.10;;
38865;SDS011;62686;48.984;8.394;2023-11-19T16:00:34;6.43;;;2.55;;
38865;SDS011;62686;48.984;8.394;2023-11-19T16:03:02;6.13;;;2.40;;
38865;SDS011;62686;48.984;8.394;2023-11-19T16:05:31;5.60;;;2.35;;
38865;SDS011;62686;48.984;8.394;2023-11-19T16:08:01;3.15;;;1.80;;
38865;SDS011;62686;48.984;8.394;2023-11-19T16:10:30;1.85;;;1.55;;
38865;SDS011;62686;48.984;8.394;2023-11-19T16:13:00;3.03;;;1.20;;
38865;SDS011;62686;48.984;8.394;2023-11-19T16:15:28;2.77;;;1.43;;
38865;SDS011;62686;48.984;8.394;2023-11-19T16:18:00;3.08;;;1.35;;
38865;SDS011;62686;48.984;8.394;2023-11-19T16:20:28;2.17;;;1.60;;
38865;SDS011;62686;48.984;8.394;2023-11-19T16:23:01;3.78;;;1.10;;
38865;SDS011;62686;48.984;8.394;2023-11-19T16:25:30;2.85;;;1.25;;
38865;SDS011;62686;48.984;8.394;2023-11-19T16:27:59;1.77;;;1.63;;
38865;SDS011;62686;48.984;8.394;2023-11-19T16:30:27;2.75;;;1.42;;
38865;SDS011;62686;48.984;8.394;2023-11-19T16:32:56;2.25;;;1.58;;
38865;SDS011;62686;48.984;8.394;2023-11-19T16:35:26;2.33;;;1.00;;
38865;SDS011;62686;48.984;8.394;2023-11-19T16:37:55;1.65;;;1.50;;
38865;SDS011;62686;48.984;8.394;2023-11-19T16:40:25;3.87;;;1.57;;
38865;SDS011;62686;48.984;8.394;2023-11-19T16:42:54;2.78;;;1.40;;
38865;SDS011;62686;48.984;8.394;2023-11-19T16:45:23;2.58;;;1.55;;
38865;SDS011;62686;48.984;8.394;2023-11-19T16:47:53;2.15;;;1.10;;
38865;SDS011;62686;48.984;8.394;2023-11-19T16:50:36;4.00;;;1.73;;
38865;SDS011;62686;48.984;8.394;2023-11-19T16:56:01;2.95;;;1.67;;
38865;SDS011;62686;48.984;8.394;2023-11-19T16:58:31;2.15;;;1.73;;
38865;SDS011;62686;48.984;8.394;2023-11-19T17:01:00;1.92;;;1.33;;
38865;SDS011;62686;48.984;8.394;2023-11-19T17:03:30;5.03;;;2.28;;
38865;SDS011;62686;48.984;8.394;2023-11-19T17:06:36;2.73;;;1.60;;
38865;SDS011;62686;48.984;8.394;2023-11-19T17:11:49;2.72;;;2.10;;
38865;SDS011;62686;48.984;8.394;2023-11-19T17:14:19;2.60;;;1.80;;
38865;SDS011;62686;48.984;8.394;2023-11-19T17:17:04;4.20;;;2.10;;
38865;SDS011;62686;48.984;8.394;2023-11-19T17:19:35;3.77;;;2.00;;
38865;SDS011;62686;48.984;8.394;2023-11-19T17:22:03;4.30;;;1.80;;
38865;SDS011;62686;48.984;8.394;2023-11-19T17:24:32;1.70;;;1.40;;
38865;SDS011;62686;48.984;8.394;2023-11-19T17:27:02;4.63;;;2.50;;
38865;SDS011;62686;48.984;8.394;2023-11-19T17:29:31;5.55;;;2.05;;
38865;SDS011;62686;48.984;8.394;2023-11-19T17:31:59;5.50;;;1.70;;
38865;SDS011;62686;48.984;8.394;2023-11-19T17:34:28;2.33;;;1.40;;
38865;SDS011;62686;48.984;8.394;2023-11-19T17:36:57;5.47;;;1.80;;
38865;SDS011;62686;48.984;8.394;2023-11-19T17:39:25;3.25;;;1.55;;
38865;SDS011;62686;48.984;8.394;2023-11-19T17:41:53;4.45;;;1.77;;
38865;SDS011;62686;48.984;8.394;2023-11-19T17:44:24;3.23;;;1.70;;
38865;SDS011;62686;48.984;8.394;2023-11-19T17:46:54;2.83;;;1.75;;
38865;SDS011;62686;48.984;8.394;2023-11-19T17:49:22;5.95;;;2.25;;
38865;SDS011;62686;48.984;8.394;2023-11-19T17:51:51;2.50;;;1.80;;
38865;SDS011;62686;48.984;8.394;2023-11-19T17:54:19;1.85;;;1.50;;
38865;SDS011;62686;48.984;8.394;2023-11-19T17:56:47;5.87;;;1.63;;
38865;SDS011;62686;48.984;8.394;2023-11-19T17:59:17;2.40;;;1.58;;
38865;SDS011;62686;48.984;8.394;2023-11-19T18:01:52;4.93;;;2.13;;
38865;SDS011;62686;48.984;8.394;2023-11-19T18:04:23;1.98;;;1.48;;
38865;SDS011;62686;48.984;8.394;2023-11-19T18:06:53;4.10;;;1.60;;
38865;SDS011;62686;48.984;8.394;2023-11-19T18:09:21;2.40;;;1.70;;
38865;SDS011;62686;48.984;8.394;2023-11-19T18:11:49;8.43;;;2.30;;
38865;SDS011;62686;48.984;8.394;2023-11-19T18:14:19;4.18;;;2.00;;
38865;SDS011;62686;48.984;8.394;2023-11-19T18:16:47;5.35;;;1.80;;
38865;SDS011;62686;48.984;8.394;2023-11-19T18:19:17;5.63;;;1.75;;
38865;SDS011;62686;48.984;8.394;2023-11-19T18:21:46;5.37;;;1.73;;
38865;SDS011;62686;48.984;8.394;2023-11-19T18:24:15;4.45;;;1.65;;
38865;SDS011;62686;48.984;8.394;2023-11-19T18:26:43;3.13;;;1.77;;
38865;SDS011;62686;48.984;8.394;2023-11-19T18:29:12;4.28;;;2.25;;
38865;SDS011;62686;48.984;8.394;2023-11-19T18:31:43;3.35;;;1.70;;
38865;SDS011;62686;48.984;8.394;2023-11-19T18:34:21;6.50;;;2.17;;
38865;SDS011;62686;48.984;8.394;2023-11-19T18:36:50;4.35;;;1.67;;
38865;SDS011;62686;48.984;8.394;2023-11-19T18:39:18;4.32;;;2.10;;
38865;SDS011;62686;48.984;8.394;2023-11-19T18:41:47;5.90;;;2.10;;
38865;SDS011;62686;48.984;8.394;2023-11-19T18:44:16;7.15;;;2.40;;
38865;SDS011;62686;48.984;8.394;2023-11-19T18:46:44;4.80;;;2.03;;
38865;SDS011;62686;48.984;8.394;2023-11-19T18:49:13;3.97;;;1.90;;
38865;SDS011;62686;48.984;8.394;2023-11-19T18:51:42;5.00;;;2.58;;
38865;SDS011;62686;48.984;8.394;2023-11-19T18:54:11;7.13;;;2.40;;
38865;SDS011;62686;48.984;8.394;2023-11-19T18:56:41;8.02;;;2.80;;
38865;SDS011;62686;48.984;8.394;2023-11-19T18:59:09;6.00;;;1.97;;
38865;SDS011;62686;48.984;8.394;2023-11-19T19:01:38;4.97;;;1.83;;
38865;SDS011;62686;48.984;8.394;2023-11-19T19:04:10;4.80;;;2.47;;
38865;SDS011;62686;48.984;8.394;2023-11-19T19:06:41;5.00;;;1.92;;
38865;SDS011;62686;48.984;8.394;2023-11-19T19:09:12;10.07;;;2.50;;
38865;SDS011;62686;48.984;8.394;2023-11-19T19:11:44;5.20;;;2.10;;
38865;SDS011;62686;48.984;8.394;2023-11-19T19:14:14;3.25;;;1.90;;
38865;SDS011;62686;48.984;8.394;2023-11-19T19:16:42;6.22;;;2.15;;
38865;SDS011;62686;48.984;8.394;2023-11-19T19:19:11;5.32;;;2.22;;
38865;SDS011;62686;48.984;8.394;2023-11-19T19:21:39;6.95;;;1.83;;
38865;SDS011;62686;48.984;8.394;2023-11-19T19:24:09;6.03;;;2.53;;
38865;SDS011;62686;48.984;8.394;2023-11-19T19:26:40;5.85;;;2.20;;
38865;SDS011;62686;48.984;8.394;2023-11-19T19:29:09;3.20;;;1.73;;
38865;SDS011;62686;48.984;8.394;2023-11-19T19:31:38;7.28;;;2.53;;
38865;SDS011;62686;48.984;8.394;2023-11-19T19:34:07;4.13;;;1.85;;
38865;SDS011;62686;48.984;8.394;2023-11-19T19:36:35;7.67;;;2.30;;
38865;SDS011;62686;48.984;8.394;2023-11-19T19:39:04;11.93;;;3.00;;
38865;SDS011;62686;48.984;8.394;2023-11-19T19:41:41;5.35;;;2.25;;
38865;SDS011;62686;48.984;8.394;2023-11-19T19:44:10;11.23;;;2.53;;
38865;SDS011;62686;48.984;8.394;2023-11-19T19:46:42;6.35;;;2.33;;
38865;SDS011;62686;48.984;8.394;2023-11-19T19:49:11;5.53;;;2.13;;
38865;SDS011;62686;48.984;8.394;2023-11-19T19:51:39;9.30;;;2.20;;
38865;SDS011;62686;48.984;8.394;2023-11-19T19:54:08;12.23;;;2.60;;
38865;SDS011;62686;48.984;8.394;2023-11-19T19:56:37;11.70;;;2.70;;
38865;SDS011;62686;48.984;8.394;2023-11-19T19:59:08;6.95;;;2.20;;
38865;SDS011;62686;48.984;8.394;2023-11-19T20:01:39;10.00;;;3.67;;
38865;SDS011;62686;48.984;8.394;2023-11-19T20:04:08;12.57;;;4.38;;
38865;SDS011;62686;48.984;8.394;2023-11-19T20:06:36;10.30;;;4.00;;
38865;SDS011;62686;48.984;8.394;2023-11-19T20:09:05;9.75;;;2.78;;
38865;SDS011;62686;48.984;8.394;2023-11-19T20:11:34;11.70;;;2.45;;
38865;SDS011;62686;48.984;8.394;2023-11-19T20:14:02;6.13;;;1.77;;
38865;SDS011;62686;48.984;8.394;2023-11-19T20:16:35;9.38;;;2.70;;
38865;SDS011;62686;48.984;8.394;2023-11-19T20:19:03;8.50;;;2.58;;
38865;SDS011;62686;48.984;8.394;2023-11-19T20:21:32;7.00;;;2.20;;
38865;SDS011;62686;48.984;8.394;2023-11-19T20:24:02;5.07;;;1.70;;
38865;SDS011;62686;48.984;8.394;2023-11-19T20:26:32;5.93;;;2.10;;
38865;SDS011;62686;48.984;8.394;2023-11-19T20:29:01;6.00;;;2.60;;
38865;SDS011;62686;48.984;8.394;2023-11-19T20:31:32;5.03;;;2.20;;
38865;SDS011;62686;48.984;8.394;2023-11-19T20:34:04;4.75;;;2.10;;
38865;SDS011;62686;48.984;8.394;2023-11-19T20:36:33;9.88;;;2.20;;
38865;SDS011;62686;48.984;8.394;2023-11-19T20:39:01;11.43;;;2.43;;
38865;SDS011;62686;48.984;8.394;2023-11-19T20:41:30;6.53;;;1.75;;
38865;SDS011;62686;48.984;8.394;2023-11-19T20:43:59;9.43;;;2.78;;
38865;SDS011;62686;48.984;8.394;2023-11-19T20:46:27;8.15;;;2.13;;
38865;SDS011;62686;48.984;8.394;2023-11-19T20:48:57;7.75;;;2.15;;
38865;SDS011;62686;48.984;8.394;2023-11-19T20:51:26;8.70;;;2.60;;
38865;SDS011;62686;48.984;8.394;2023-11-19T20:53:56;9.38;;;2.45;;
38865;SDS011;62686;48.984;8.394;2023-11-19T20:56:25;7.38;;;2.67;;
38865;SDS011;62686;48.984;8.394;2023-11-19T20:58:54;10.55;;;1.73;;